createdAt,value
2018-08-03T00:01:58.409Z,47.90
2018-08-03T00:04:26.681Z,47.80
2018-08-03T00:06:54.944Z,47.90
2018-08-03T00:09:23.212Z,48.00
2018-08-03T00:11:51.445Z,48.10
2018-08-03T00:14:19.715Z,48.00
2018-08-03T00:16:47.966Z,48.00
2018-08-03T00:21:44.217Z,48.00
2018-08-03T00:24:12.485Z,48.00
2018-08-03T00:26:40.737Z,48.00
2018-08-03T00:29:09.180Z,48.10
2018-08-03T00:31:37.404Z,48.10
2018-08-03T00:34:05.876Z,48.10
2018-08-03T00:36:34.132Z,48.10
2018-08-03T00:39:02.416Z,48.20
2018-08-03T00:41:30.715Z,48.20
2018-08-03T00:43:58.982Z,48.30
2018-08-03T00:46:27.228Z,48.30
2018-08-03T00:48:55.513Z,48.30
2018-08-03T00:51:23.752Z,48.40
2018-08-03T00:53:52.033Z,48.40
2018-08-03T00:56:20.352Z,48.40
2018-08-03T00:58:48.626Z,48.50
2018-08-03T01:01:16.903Z,48.50
2018-08-03T01:03:45.308Z,48.60
2018-08-03T01:06:13.589Z,48.60
2018-08-03T01:08:41.841Z,48.60
2018-08-03T01:11:10.073Z,48.60
2018-08-03T01:13:38.361Z,48.50
2018-08-03T01:16:06.697Z,48.70
2018-08-03T01:18:34.960Z,48.70
2018-08-03T01:21:03.228Z,48.70
2018-08-03T01:23:31.513Z,48.80
2018-08-03T01:25:59.848Z,48.80
2018-08-03T01:28:28.127Z,48.80
2018-08-03T01:30:56.340Z,48.80
2018-08-03T01:33:24.608Z,48.90
2018-08-03T01:35:52.864Z,48.90
2018-08-03T01:38:21.092Z,48.90
2018-08-03T01:40:49.369Z,48.90
2018-08-03T01:43:17.650Z,49.00
2018-08-03T01:45:46.258Z,49.00
2018-08-03T01:48:14.550Z,49.10
2018-08-03T01:50:42.814Z,49.10
2018-08-03T01:53:11.065Z,49.10
2018-08-03T01:55:39.342Z,49.10
2018-08-03T01:58:07.597Z,49.10
2018-08-03T02:00:35.890Z,49.20
2018-08-03T02:03:04.161Z,49.20
2018-08-03T02:05:32.452Z,49.20
2018-08-03T02:08:00.700Z,49.20
2018-08-03T02:10:28.966Z,49.20
2018-08-03T02:12:57.176Z,49.20
2018-08-03T02:15:25.440Z,49.30
2018-08-03T02:17:53.740Z,49.30
2018-08-03T02:20:22.013Z,49.30
2018-08-03T02:22:50.259Z,49.40
2018-08-03T02:25:18.531Z,49.40
2018-08-03T02:27:46.753Z,49.40
2018-08-03T02:30:15.006Z,49.40
2018-08-03T02:32:43.309Z,49.50
2018-08-03T02:35:11.578Z,49.50
2018-08-03T02:37:39.816Z,49.50
2018-08-03T02:40:08.088Z,49.50
2018-08-03T02:42:36.349Z,49.50
2018-08-03T02:45:05.058Z,49.60
2018-08-03T02:47:33.351Z,49.60
2018-08-03T02:50:01.605Z,49.70
2018-08-03T02:52:29.851Z,49.60
2018-08-03T02:54:58.112Z,49.70
2018-08-03T02:57:26.425Z,49.70
2018-08-03T02:59:54.725Z,49.80
2018-08-03T03:02:22.965Z,49.80
2018-08-03T03:04:51.242Z,49.70
2018-08-03T03:07:19.489Z,49.70
2018-08-03T03:09:47.752Z,49.80
2018-08-03T03:12:16.008Z,49.80
2018-08-03T03:14:44.269Z,49.80
2018-08-03T03:17:12.518Z,49.80
2018-08-03T03:19:40.818Z,49.90
2018-08-03T03:22:08.984Z,50.60
2018-08-03T03:24:37.262Z,49.90
2018-08-03T03:27:05.513Z,50.00
2018-08-03T03:29:33.776Z,50.00
2018-08-03T03:32:02.014Z,50.00
2018-08-03T03:34:30.308Z,50.00
2018-08-03T03:36:58.552Z,50.10
2018-08-03T03:39:26.810Z,50.10
2018-08-03T03:41:55.101Z,50.10
2018-08-03T03:44:23.360Z,50.20
2018-08-03T03:46:51.602Z,50.20
2018-08-03T03:49:19.836Z,50.20
2018-08-03T03:51:48.090Z,50.40
2018-08-03T03:54:16.353Z,50.40
2018-08-03T03:56:44.578Z,50.30
2018-08-03T03:59:12.884Z,50.40
2018-08-03T04:01:41.108Z,50.40
2018-08-03T04:04:09.405Z,50.40
2018-08-03T04:06:37.691Z,50.40
2018-08-03T04:09:09.065Z,50.50
2018-08-03T04:11:37.322Z,50.50
2018-08-03T04:14:05.569Z,50.50
2018-08-03T04:16:34.140Z,50.60
2018-08-03T04:19:02.403Z,50.50
2018-08-03T04:21:30.677Z,50.50
2018-08-03T04:23:58.951Z,50.60
2018-08-03T04:26:27.209Z,50.60
2018-08-03T04:28:55.523Z,50.60
2018-08-03T04:31:23.821Z,50.60
2018-08-03T04:33:52.200Z,50.60
2018-08-03T04:36:20.995Z,50.60
2018-08-03T04:38:49.575Z,50.70
2018-08-03T04:41:17.768Z,50.70
2018-08-03T04:43:46.044Z,50.70
2018-08-03T04:46:14.284Z,50.70
2018-08-03T04:48:42.591Z,50.70
2018-08-03T04:51:10.826Z,50.70
2018-08-03T04:53:39.135Z,50.80
2018-08-03T04:56:07.377Z,50.70
2018-08-03T04:58:35.674Z,50.80
2018-08-03T05:01:03.968Z,50.70
2018-08-03T05:03:32.198Z,50.80
2018-08-03T05:06:00.446Z,50.80
2018-08-03T05:08:28.696Z,50.80
2018-08-03T05:10:56.940Z,50.90
2018-08-03T05:13:25.503Z,50.80
2018-08-03T05:15:53.746Z,50.70
2018-08-03T05:18:22.014Z,50.70
2018-08-03T05:20:50.273Z,50.80
2018-08-03T05:23:18.853Z,50.80
2018-08-03T05:25:47.164Z,50.60
2018-08-03T05:28:15.429Z,50.70
2018-08-03T05:30:43.687Z,50.70
2018-08-03T05:33:11.973Z,50.60
2018-08-03T05:35:40.236Z,50.60
2018-08-03T05:38:08.736Z,50.60
2018-08-03T05:40:37.082Z,50.50
2018-08-03T05:43:05.350Z,50.50
2018-08-03T05:45:33.694Z,50.50
2018-08-03T05:48:01.866Z,50.50
2018-08-03T05:50:30.113Z,50.40
2018-08-03T05:52:58.382Z,50.40
2018-08-03T05:55:26.640Z,50.40
2018-08-03T05:57:55.049Z,50.30
2018-08-03T06:00:23.192Z,50.30
2018-08-03T06:02:51.460Z,50.30
2018-08-03T06:05:19.837Z,50.20
2018-08-03T06:07:48.085Z,50.20
2018-08-03T06:10:16.344Z,50.20
2018-08-03T06:12:44.648Z,50.10
2018-08-03T06:15:12.957Z,50.20
2018-08-03T06:17:41.215Z,50.20
2018-08-03T06:20:11.687Z,50.60
2018-08-03T06:22:40.180Z,50.40
2018-08-03T06:25:09.368Z,51.40
2018-08-03T06:27:37.701Z,50.40
2018-08-03T06:30:07.399Z,51.60
2018-08-03T06:32:36.148Z,52.30
2018-08-03T06:35:04.428Z,50.90
2018-08-03T06:37:32.706Z,52.60
2018-08-03T06:40:00.993Z,50.80
2018-08-03T06:42:29.452Z,51.40
2018-08-03T06:44:57.837Z,51.20
2018-08-03T06:47:26.106Z,51.00
2018-08-03T06:49:54.349Z,50.70
2018-08-03T06:52:22.643Z,50.80
2018-08-03T06:54:50.956Z,50.90
2018-08-03T06:57:19.245Z,51.10
2018-08-03T06:59:47.524Z,50.80
2018-08-03T07:04:43.783Z,51.20
2018-08-03T07:07:12.049Z,50.80
2018-08-03T07:09:40.284Z,50.80
2018-08-03T07:12:08.577Z,51.30
2018-08-03T07:14:36.871Z,51.10
2018-08-03T07:17:05.149Z,53.10
2018-08-03T07:19:33.481Z,52.50
2018-08-03T07:22:01.745Z,51.40
2018-08-03T07:24:30.029Z,53.20
2018-08-03T07:26:58.551Z,51.50
2018-08-03T07:29:26.816Z,51.60
2018-08-03T07:31:55.062Z,51.60
2018-08-03T07:34:23.322Z,51.00
2018-08-03T07:36:51.676Z,51.10
2018-08-03T07:39:20.198Z,52.10
2018-08-03T07:41:48.509Z,51.30
2018-08-03T07:44:16.792Z,51.20
2018-08-03T07:46:45.046Z,53.80
2018-08-03T07:49:13.326Z,52.30
2018-08-03T07:51:42.176Z,52.80
2018-08-03T07:54:11.349Z,51.80
2018-08-03T07:56:40.071Z,52.10
2018-08-03T07:59:08.317Z,51.60
2018-08-03T08:01:36.772Z,52.20
2018-08-03T08:04:05.204Z,52.10
2018-08-03T08:06:33.559Z,51.50
2018-08-03T08:09:01.969Z,51.70
2018-08-03T08:11:30.303Z,52.80
2018-08-03T08:13:58.575Z,51.70
2018-08-03T08:16:26.872Z,52.40
2018-08-03T08:18:55.346Z,52.40
2018-08-03T08:21:23.605Z,52.70
2018-08-03T08:23:52.017Z,52.50
2018-08-03T08:26:21.449Z,52.90
2018-08-03T08:28:50.021Z,52.30
2018-08-03T08:31:18.294Z,52.20
2018-08-03T08:33:46.604Z,52.10
2018-08-03T08:36:14.878Z,52.50
2018-08-03T08:38:43.157Z,52.00
2018-08-03T08:41:11.445Z,52.20
2018-08-03T08:43:40.042Z,52.00
2018-08-03T08:46:08.328Z,51.80
2018-08-03T08:48:36.604Z,52.40
2018-08-03T08:51:04.881Z,51.70
2018-08-03T08:53:33.140Z,51.70
2018-08-03T08:56:01.398Z,52.80
2018-08-03T08:58:29.686Z,51.70
2018-08-03T09:00:58.004Z,51.60
2018-08-03T09:03:26.180Z,52.00
2018-08-03T09:05:54.488Z,51.50
2018-08-03T09:08:22.757Z,51.40
2018-08-03T09:10:51.044Z,51.20
2018-08-03T09:15:47.313Z,51.40
2018-08-03T09:20:43.705Z,51.10
2018-08-03T09:23:12.045Z,50.90
2018-08-03T09:25:40.277Z,50.80
2018-08-03T09:28:08.724Z,50.70
2018-08-03T09:30:37.003Z,50.70
2018-08-03T09:33:05.298Z,50.60
2018-08-03T09:35:33.931Z,50.60
2018-08-03T09:38:02.223Z,50.40
2018-08-03T09:40:30.469Z,50.40
2018-08-03T09:43:00.075Z,50.20
2018-08-03T09:45:29.646Z,50.20
2018-08-03T09:47:58.890Z,50.20
2018-08-03T09:50:27.853Z,50.00
2018-08-03T09:52:56.984Z,50.10
2018-08-03T09:55:26.600Z,49.90
2018-08-03T09:57:56.203Z,49.80
2018-08-03T10:00:30.276Z,49.70
2018-08-03T10:02:59.161Z,49.80
2018-08-03T10:05:29.092Z,49.90
2018-08-03T10:08:00.768Z,49.70
2018-08-03T10:10:29.965Z,49.80
2018-08-03T10:12:59.188Z,49.80
2018-08-03T10:15:28.337Z,49.70
2018-08-03T10:17:57.730Z,49.90
2018-08-03T10:20:25.990Z,49.70
2018-08-03T10:22:54.285Z,49.50
2018-08-03T10:25:22.580Z,49.10
2018-08-03T10:27:50.837Z,49.40
2018-08-03T10:30:19.145Z,49.40
2018-08-03T10:32:47.440Z,49.40
2018-08-03T10:35:15.693Z,49.30
2018-08-03T10:37:43.945Z,49.40
2018-08-03T10:40:12.197Z,49.20
2018-08-03T10:42:40.448Z,49.30
2018-08-03T10:45:08.730Z,49.20
2018-08-03T10:47:36.948Z,49.20
2018-08-03T10:50:05.247Z,49.00
2018-08-03T10:52:33.500Z,49.10
2018-08-03T10:55:01.757Z,49.20
2018-08-03T10:57:29.992Z,48.90
2018-08-03T10:59:58.242Z,48.70
2018-08-03T11:02:26.460Z,49.10
2018-08-03T11:04:54.737Z,49.00
2018-08-03T11:07:22.987Z,48.80
2018-08-03T11:09:51.380Z,48.90
2018-08-03T11:12:20.029Z,48.90
2018-08-03T11:14:48.615Z,48.80
2018-08-03T11:17:16.874Z,48.80
2018-08-03T11:19:45.153Z,48.40
2018-08-03T11:22:13.449Z,48.60
2018-08-03T11:24:41.802Z,48.10
2018-08-03T11:27:10.061Z,48.40
2018-08-03T11:29:38.385Z,48.40
2018-08-03T11:32:06.597Z,48.30
2018-08-03T11:34:34.988Z,48.20
2018-08-03T11:37:03.270Z,48.00
2018-08-03T11:39:31.505Z,48.00
2018-08-03T11:41:59.797Z,47.80
2018-08-03T11:44:28.105Z,47.60
2018-08-03T11:46:56.365Z,47.70
2018-08-03T11:49:24.636Z,46.70
2018-08-03T11:51:52.906Z,47.40
2018-08-03T11:54:21.153Z,46.30
2018-08-03T11:56:49.473Z,47.60
2018-08-03T11:59:17.703Z,47.50
2018-08-03T12:01:45.979Z,47.60
2018-08-03T12:04:14.261Z,48.00
2018-08-03T12:06:42.548Z,47.50
2018-08-03T12:09:10.829Z,47.80
2018-08-03T12:11:39.088Z,47.40
2018-08-03T12:14:07.361Z,47.60
2018-08-03T12:16:35.659Z,47.60
2018-08-03T12:19:03.943Z,47.50
2018-08-03T12:21:32.270Z,47.10
2018-08-03T12:24:00.559Z,47.10
2018-08-03T12:26:28.857Z,44.70
2018-08-03T12:28:57.169Z,47.80
2018-08-03T12:31:25.512Z,46.60
2018-08-03T12:33:53.916Z,47.40
2018-08-03T12:36:22.208Z,47.20
2018-08-03T12:38:50.502Z,47.30
2018-08-03T12:41:18.880Z,47.00
2018-08-03T12:43:47.143Z,47.50
2018-08-03T12:46:15.361Z,47.10
2018-08-03T12:51:11.656Z,47.30
2018-08-03T12:53:39.924Z,47.00
2018-08-03T12:56:08.177Z,47.20
2018-08-03T12:58:36.416Z,47.10
2018-08-03T13:01:04.824Z,47.00
2018-08-03T13:03:33.056Z,47.00
2018-08-03T13:06:01.417Z,46.90
2018-08-03T13:08:29.823Z,47.70
2018-08-03T13:10:58.005Z,46.80
2018-08-03T13:13:26.257Z,46.40
2018-08-03T13:15:54.506Z,46.70
2018-08-03T13:18:22.804Z,47.00
2018-08-03T13:20:51.056Z,46.70
2018-08-03T13:23:19.299Z,46.80
2018-08-03T13:25:47.553Z,44.40
2018-08-03T13:28:15.924Z,42.80
2018-08-03T13:30:44.761Z,45.90
2018-08-03T13:33:13.047Z,46.20
2018-08-03T13:35:41.248Z,46.10
2018-08-03T13:38:09.592Z,46.10
2018-08-03T13:40:38.365Z,46.30
2018-08-03T13:43:06.640Z,45.70
2018-08-03T13:45:34.931Z,44.30
2018-08-03T13:48:03.265Z,46.30
2018-08-03T13:50:31.669Z,46.10
2018-08-03T13:52:59.920Z,46.00
2018-08-03T13:55:28.182Z,46.00
2018-08-03T13:57:56.502Z,46.10
2018-08-03T14:00:24.817Z,45.80
2018-08-03T14:02:53.069Z,45.60
2018-08-03T14:05:21.352Z,45.80
2018-08-03T14:07:49.676Z,45.80
2018-08-03T14:10:18.010Z,45.90
2018-08-03T14:12:46.438Z,44.30
2018-08-03T14:15:14.725Z,45.60
2018-08-03T14:17:43.009Z,45.40
2018-08-03T14:20:11.257Z,44.90
2018-08-03T14:22:39.549Z,45.00
2018-08-03T14:27:36.475Z,44.80
2018-08-03T14:30:05.924Z,45.40
2018-08-03T14:32:34.197Z,45.50
2018-08-03T14:35:02.453Z,45.20
2018-08-03T14:37:30.673Z,45.10
2018-08-03T14:39:58.948Z,43.60
2018-08-03T14:44:55.209Z,44.90
2018-08-03T14:47:23.510Z,45.10
2018-08-03T14:49:51.774Z,44.20
2018-08-03T14:52:20.004Z,42.50
2018-08-03T14:54:48.322Z,44.50
2018-08-03T14:57:16.603Z,43.10
2018-08-03T14:59:44.881Z,43.60
2018-08-03T15:02:13.156Z,43.70
2018-08-03T15:04:41.445Z,45.10
2018-08-03T15:07:09.869Z,43.10
2018-08-03T15:09:38.120Z,41.10
2018-08-03T15:12:06.401Z,43.60
2018-08-03T15:14:34.677Z,44.30
2018-08-03T15:17:03.152Z,43.50
2018-08-03T15:19:31.428Z,44.80
2018-08-03T15:21:59.693Z,44.30
2018-08-03T15:24:27.941Z,45.10
2018-08-03T15:26:56.193Z,44.90
2018-08-03T15:29:24.458Z,45.30
2018-08-03T15:31:52.732Z,44.70
2018-08-03T15:34:21.326Z,44.30
2018-08-03T15:36:49.589Z,44.00
2018-08-03T15:39:17.833Z,44.40
2018-08-03T15:41:46.073Z,44.70
2018-08-03T15:44:15.008Z,44.60
2018-08-03T15:46:43.386Z,44.60
2018-08-03T15:49:11.648Z,44.90
2018-08-03T15:51:39.884Z,43.70
2018-08-03T15:54:08.169Z,44.40
2018-08-03T15:56:36.431Z,44.30
2018-08-03T15:59:04.725Z,44.60
2018-08-03T16:01:33.000Z,45.00
2018-08-03T16:04:01.231Z,44.60
2018-08-03T16:08:57.462Z,43.00
2018-08-03T16:11:25.738Z,44.30
2018-08-03T16:13:53.972Z,43.80
2018-08-03T16:16:22.209Z,44.40
2018-08-03T16:18:50.492Z,44.50
2018-08-03T16:21:18.737Z,43.00
2018-08-03T16:23:47.025Z,44.30
2018-08-03T16:26:15.303Z,44.10
2018-08-03T16:28:43.565Z,41.10
2018-08-03T16:31:11.915Z,40.90
2018-08-03T16:33:40.173Z,39.40
2018-08-03T16:36:08.464Z,39.80
2018-08-03T16:38:36.779Z,40.10
2018-08-03T16:41:05.073Z,39.80
2018-08-03T16:43:33.324Z,40.00
2018-08-03T16:46:01.620Z,40.50
2018-08-03T16:48:29.865Z,40.60
2018-08-03T16:50:58.116Z,40.90
2018-08-03T16:53:26.350Z,41.10
2018-08-03T16:55:54.590Z,41.40
2018-08-03T16:58:22.900Z,41.30
2018-08-03T17:00:51.218Z,41.30
2018-08-03T17:03:19.473Z,41.80
2018-08-03T17:05:47.732Z,41.80
2018-08-03T17:08:16.158Z,41.10
2018-08-03T17:10:44.416Z,42.10
2018-08-03T17:15:40.938Z,42.30
2018-08-03T17:18:09.236Z,42.20
2018-08-03T17:20:37.524Z,40.80
2018-08-03T17:23:05.909Z,42.20
2018-08-03T17:25:36.400Z,42.50
2018-08-03T17:28:05.521Z,41.10
2018-08-03T17:30:34.870Z,40.10
2018-08-03T17:33:03.171Z,40.30
2018-08-03T17:35:31.695Z,40.70
2018-08-03T17:38:00.094Z,40.50
2018-08-03T17:40:28.397Z,40.70
2018-08-03T17:42:56.777Z,40.80
2018-08-03T17:45:24.946Z,41.00
2018-08-03T17:47:53.320Z,41.20
2018-08-03T17:50:22.508Z,41.10
2018-08-03T17:52:51.097Z,41.30
2018-08-03T17:55:19.393Z,41.30
2018-08-03T17:57:47.617Z,41.10
2018-08-03T18:00:15.896Z,41.40
2018-08-03T18:02:44.499Z,41.20
2018-08-03T18:05:12.787Z,41.50
2018-08-03T18:07:41.101Z,42.20
2018-08-03T18:10:09.716Z,41.80
2018-08-03T18:12:38.975Z,42.30
2018-08-03T18:15:07.817Z,43.00
2018-08-03T18:17:36.073Z,43.30
2018-08-03T18:20:05.017Z,42.60
2018-08-03T18:22:33.308Z,43.10
2018-08-03T18:25:02.627Z,42.70
2018-08-03T18:27:31.112Z,43.10
2018-08-03T18:30:00.102Z,43.10
2018-08-03T18:32:28.398Z,43.30
2018-08-03T18:34:56.632Z,43.40
2018-08-03T18:37:24.929Z,43.70
2018-08-03T18:39:53.179Z,43.80
2018-08-03T18:42:21.436Z,44.10
2018-08-03T18:44:49.720Z,44.40
2018-08-03T18:47:17.934Z,44.90
2018-08-03T18:49:47.150Z,44.50
2018-08-03T18:52:15.526Z,45.10
2018-08-03T18:54:43.936Z,44.90
2018-08-03T18:57:12.394Z,44.70
2018-08-03T18:59:40.632Z,44.60
2018-08-03T19:02:08.917Z,45.30
2018-08-03T19:04:38.239Z,45.60
2018-08-03T19:07:06.653Z,45.70
2018-08-03T19:09:35.279Z,46.10
2018-08-03T19:12:03.559Z,45.50
2018-08-03T19:14:31.941Z,45.30
2018-08-03T19:17:00.307Z,45.70
2018-08-03T19:19:28.835Z,46.40
2018-08-03T19:21:57.371Z,46.40
2018-08-03T19:24:25.752Z,47.50
2018-08-03T19:26:54.143Z,47.00
2018-08-03T19:29:22.442Z,47.30
2018-08-03T19:31:50.699Z,46.40
2018-08-03T19:34:19.014Z,46.60
2018-08-03T19:36:47.468Z,46.80
2018-08-03T19:39:15.984Z,46.40
2018-08-03T19:41:44.347Z,47.00
2018-08-03T19:44:12.748Z,47.80
2018-08-03T19:46:41.052Z,46.70
2018-08-03T19:49:09.715Z,46.70
2018-08-03T19:51:38.125Z,46.80
2018-08-03T19:54:06.413Z,46.70
2018-08-03T19:56:34.800Z,47.10
2018-08-03T19:59:03.475Z,46.60
2018-08-03T20:01:31.984Z,47.00
2018-08-03T20:04:00.338Z,46.70
2018-08-03T20:06:28.633Z,47.10
2018-08-03T20:08:57.135Z,46.70
2018-08-03T20:11:25.820Z,46.70
2018-08-03T20:16:22.482Z,46.60
2018-08-03T20:18:50.799Z,46.90
2018-08-03T20:21:19.082Z,46.70
2018-08-03T20:23:47.799Z,47.80
2018-08-03T20:26:16.052Z,47.10
2018-08-03T20:28:44.288Z,47.30
2018-08-03T20:31:12.547Z,47.20
2018-08-03T20:33:40.788Z,47.00
2018-08-03T20:36:09.145Z,47.00
2018-08-03T20:38:37.408Z,47.10
2018-08-03T20:41:05.689Z,47.30
2018-08-03T20:43:33.961Z,47.40
2018-08-03T20:46:02.251Z,47.40
2018-08-03T20:48:30.500Z,47.20
2018-08-03T20:50:58.771Z,47.30
2018-08-03T20:53:27.053Z,47.30
2018-08-03T20:55:55.308Z,47.30
2018-08-03T20:58:23.578Z,47.40
2018-08-03T21:00:51.799Z,47.40
2018-08-03T21:03:20.089Z,47.50
2018-08-03T21:05:48.462Z,47.60
2018-08-03T21:08:16.706Z,47.50
2018-08-03T21:10:44.932Z,47.70
2018-08-03T21:13:13.186Z,47.70
2018-08-03T21:15:41.436Z,47.80
2018-08-03T21:18:09.756Z,47.80
2018-08-03T21:20:37.992Z,48.50
2018-08-03T21:23:06.252Z,48.60
2018-08-03T21:25:34.512Z,48.00
2018-08-03T21:28:02.737Z,48.10
2018-08-03T21:30:31.036Z,48.00
2018-08-03T21:32:59.273Z,48.00
2018-08-03T21:35:27.524Z,48.00
2018-08-03T21:37:55.756Z,48.10
2018-08-03T21:40:24.014Z,48.90
2018-08-03T21:42:52.240Z,48.30
2018-08-03T21:45:20.477Z,48.30
2018-08-03T21:47:48.733Z,48.30
2018-08-03T21:50:16.991Z,48.40
2018-08-03T21:52:45.261Z,48.40
2018-08-03T21:55:13.501Z,49.10
2018-08-03T21:57:41.767Z,48.50
2018-08-03T22:00:13.834Z,48.50
2018-08-03T22:02:42.081Z,48.60
2018-08-03T22:05:10.348Z,48.70
2018-08-03T22:07:38.584Z,48.70
2018-08-03T22:10:07.016Z,48.80
2018-08-03T22:12:35.405Z,48.70
2018-08-03T22:15:03.757Z,48.70
2018-08-03T22:17:32.005Z,48.80
2018-08-03T22:20:00.263Z,48.80
2018-08-03T22:22:28.492Z,48.90
2018-08-03T22:24:56.756Z,49.50
2018-08-03T22:27:25.056Z,49.00
2018-08-03T22:29:53.338Z,49.00
2018-08-03T22:32:21.667Z,49.10
2018-08-03T22:34:49.887Z,49.10
2018-08-03T22:37:18.201Z,49.10
2018-08-03T22:42:14.628Z,49.10
2018-08-03T22:44:42.895Z,49.20
2018-08-03T22:47:11.156Z,49.20
2018-08-03T22:49:39.480Z,49.30
2018-08-03T22:52:07.728Z,49.30
2018-08-03T22:54:35.954Z,49.30
2018-08-03T22:57:04.216Z,49.30
2018-08-03T22:59:32.456Z,49.30
2018-08-03T23:02:00.740Z,49.40
2018-08-03T23:04:29.008Z,49.40
2018-08-03T23:06:57.260Z,49.40
2018-08-03T23:09:25.509Z,49.50
2018-08-03T23:11:53.772Z,49.40
2018-08-03T23:14:22.028Z,49.40
2018-08-03T23:16:50.306Z,49.40
2018-08-03T23:19:18.553Z,49.50
2018-08-03T23:21:46.930Z,49.50
2018-08-03T23:24:15.169Z,49.60
2018-08-03T23:26:43.448Z,49.60
2018-08-03T23:29:11.769Z,49.70
2018-08-03T23:31:40.035Z,49.70
2018-08-03T23:34:08.588Z,49.60
2018-08-03T23:36:36.885Z,49.70
2018-08-03T23:39:07.054Z,49.70
2018-08-03T23:41:35.362Z,49.70
2018-08-03T23:44:03.673Z,49.70
2018-08-03T23:46:31.965Z,49.80
2018-08-03T23:49:00.237Z,49.80
2018-08-03T23:51:28.480Z,49.80
2018-08-03T23:53:56.789Z,49.80
2018-08-03T23:56:25.093Z,49.90
2018-08-03T23:58:53.357Z,49.90
